Melvin L King — WUT9921 — position and weather

sailwx.info

Track history (hours):
 
Tides and Currents Weather Stations Pressure Air Temp Water Temp Dewpoint Dewpoint Depression Visibility Wind Speed Wind Dir Waves Ship Positions

Melvin L King

Owner: YAZOO RIVER TOWING INC, VICKSBURG, MS. More information available from US FCC via Universal Licensing System and Coast Guard Vessel Documentation Center.

Last reported at 2018-Jun-23 09:36 UTC. Time now 2018-Jun-24 14:57 UTC.
Position N 31°59' W 091°06'.

Length 21 m; draft 2.5 m.

Type: Tow > 200 m length. MMSI: 367005760.

Date/timePositionNaut miles runAvg speedWind from/ knotsBaromVisibWave heightAir tempDewpointWater temp
2018-Jun-23 09:36N 31°59' W 091°06'1 9.8
2018-Jun-23 09:29N 32°00' W 091°05'6 8.5
2018-Jun-23 08:45N 32°06' W 091°06'2 7.4
2018-Jun-23 08:30N 32°08' W 091°05'4 8.8
2018-Jun-23 08:00N 32°09' W 091°00'510.3
2018-Jun-23 07:30N 32°14' W 090°59'510.3
2018-Jun-23 06:59N 32°18' W 090°55'3 5.9
2018-Jun-23 06:30N 32°20' W 090°54'0 0.2
2018-Jun-23 06:00N 32°21' W 090°54'0 0.0
2018-Jun-23 05:29N 32°21' W 090°54'0 0.0
2018-Jun-23 05:00N 32°21' W 090°54'0 0.0
2018-Jun-23 04:30N 32°21' W 090°54'0 0.0
2018-Jun-23 04:01N 32°21' W 090°54'0 0.0
2018-Jun-23 03:30N 32°21' W 090°54'0 0.0
2018-Jun-23 03:00N 32°21' W 090°54'0 0.0
2018-Jun-23 02:30N 32°21' W 090°54'0 0.0
2018-Jun-23 02:00N 32°21' W 090°54'0 0.6
2018-Jun-23 01:30N 32°20' W 090°54'0 0.5
2018-Jun-23 01:00N 32°20' W 090°54'2 4.6
2018-Jun-23 00:30N 32°18' W 090°55'2 3.8
2018-Jun-23 00:00N 32°17' W 090°57'2 3.7
2018-Jun-22 23:30N 32°15' W 090°58'2 3.9
2018-Jun-22 23:00N 32°14' W 090°59'2 3.4
2018-Jun-22 22:30N 32°12' W 090°59'2 3.6
2018-Jun-22 22:00N 32°10' W 090°60'2 3.7
2018-Jun-22 21:30N 32°08' W 091°00'2 3.5
2018-Jun-22 21:00N 32°07' W 091°02'3 3.9
2018-Jun-22 20:14N 32°08' W 091°05'1 4.0
2018-Jun-22 20:00N 32°07' W 091°06'3 2.9
2018-Jun-22 18:48N 32°04' W 091°04'1 4.0
2018-Jun-22 18:30N 32°03' W 091°04'2 4.9
2018-Jun-22 18:00N 32°01' W 091°05'  
2018-Jun-18 21:19N 29°51' W 091°54'2 6.9
2018-Jun-18 21:00N 29°50' W 091°57'2 4.3
2018-Jun-18 20:30N 29°50' W 091°59'0 0.0
2018-Jun-18 20:01N 29°50' W 091°59'0 0.0
2018-Jun-18 19:30N 29°50' W 091°59'0 0.0
2018-Jun-18 19:01N 29°50' W 091°59'0 0.0
2018-Jun-18 18:29N 29°50' W 091°59'0 0.0
2018-Jun-18 18:00N 29°50' W 091°59'0 0.0
2018-Jun-18 17:30N 29°50' W 091°59'0 0.0
2018-Jun-18 17:00N 29°50' W 091°59'0 0.0
2018-Jun-18 16:28N 29°50' W 091°59'0 0.0
2018-Jun-18 15:53N 29°50' W 091°59'0 0.0
2018-Jun-18 15:30N 29°50' W 091°59'0 0.0
2018-Jun-18 14:58N 29°50' W 091°59'0 0.0
2018-Jun-18 14:30N 29°50' W 091°59'0 0.0
2018-Jun-18 14:00N 29°50' W 091°59'0 0.0
2018-Jun-18 13:30N 29°50' W 091°59'0 0.0
2018-Jun-18 13:00N 29°50' W 091°59'0 0.0
2018-Jun-18 12:30N 29°50' W 091°59'0 0.5
2018-Jun-18 12:00N 29°50' W 091°59'0 0.0
2018-Jun-18 11:30N 29°50' W 091°59'0 0.0
2018-Jun-18 11:00N 29°50' W 091°59'0 0.0
2018-Jun-18 10:30N 29°50' W 091°59'0 0.0
2018-Jun-18 10:00N 29°50' W 091°59'1 1.9
2018-Jun-18 09:30N 29°50' W 092°00'2 3.0
2018-Jun-18 09:00N 29°49' W 092°02'3 6.3
2018-Jun-18 08:30N 29°48' W 092°05'3 5.4
2018-Jun-18 08:00N 29°47' W 092°08'3 5.3
2018-Jun-18 07:30N 29°47' W 092°11'1 2.5
2018-Jun-18 07:00N 29°47' W 092°12'0 0.8
2018-Jun-18 06:31N 29°47' W 092°13'1 2.5
2018-Jun-18 06:00N 29°48' W 092°14'0 0.1
2018-Jun-18 05:30N 29°48' W 092°14'1 1.1
2018-Jun-18 05:00N 29°48' W 092°15'0 0.0
2018-Jun-18 04:30N 29°48' W 092°15'0 0.0
2018-Jun-18 04:00N 29°48' W 092°15'0 0.0
2018-Jun-18 03:30N 29°48' W 092°15'0 0.0
2018-Jun-18 03:00N 29°48' W 092°15'0 0.0
2018-Jun-18 02:30N 29°48' W 092°15'0 0.5
2018-Jun-18 02:00N 29°48' W 092°15'0 0.9
2018-Jun-18 01:30N 29°48' W 092°16'0 0.0
2018-Jun-18 01:00N 29°48' W 092°16'0 0.0
2018-Jun-18 00:30N 29°48' W 092°16'0 0.0
2018-Jun-18 00:00N 29°48' W 092°16'0 0.0
2018-Jun-17 23:30N 29°48' W 092°16'1 1.6
2018-Jun-17 23:00N 29°49' W 092°16'3 5.6
2018-Jun-17 22:30N 29°50' W 092°19'0 0.2
2018-Jun-17 22:00N 29°50' W 092°19'0 0.1
2018-Jun-17 21:30N 29°50' W 092°19'2 3.2
2018-Jun-17 21:00N 29°50' W 092°18'2 3.4
2018-Jun-17 20:30N 29°49' W 092°16'2 3.8
2018-Jun-17 20:00N 29°48' W 092°14'2 3.2
2018-Jun-17 19:30N 29°47' W 092°12'1 1.3
2018-Jun-17 19:00N 29°47' W 092°12'0 0.2
2018-Jun-17 18:31N 29°47' W 092°12'0 0.0
2018-Jun-17 18:00N 29°47' W 092°12'0 0.3
2018-Jun-17 17:30N 29°47' W 092°11'1 1.2
2018-Jun-17 17:00N 29°47' W 092°11'1 2.4
2018-Jun-17 16:31N 29°47' W 092°09'2 4.6
2018-Jun-17 16:00N 29°48' W 092°07'2 4.3
2018-Jun-17 15:30N 29°48' W 092°05'2 5.0
2018-Jun-17 15:01N 29°49' W 092°02'6 5.5
2018-Jun-17 13:58N 29°51' W 091°56'54 3.8
2018-Jun-16 23:36N 29°34' W 090°56'1 5.3
2018-Jun-16 23:28N 29°34' W 090°55'3 4.9
2018-Jun-16 22:56N 29°32' W 090°53'2 5.2
2018-Jun-16 22:29N 29°32' W 090°50'3 5.4
2018-Jun-16 22:00N 29°32' W 090°47'2 4.2
2018-Jun-16 21:30N 29°33' W 090°45'2 4.2
2018-Jun-16 21:00N 29°35' W 090°43'2 3.7
2018-Jun-16 20:30N 29°36' W 090°43'2 3.0
2018-Jun-16 20:00N 29°36' W 090°41'2 4.2
2018-Jun-16 19:30N 29°35' W 090°39'2 3.9
2018-Jun-16 19:00N 29°35' W 090°37'2 3.8
2018-Jun-16 18:30N 29°34' W 090°34'2 4.2
2018-Jun-16 18:00N 29°34' W 090°32'2 4.5
2018-Jun-16 17:30N 29°34' W 090°29'  
2018-Jun-14 08:52N 31°59' W 091°10'4 8.5
2018-Jun-14 08:25N 31°59' W 091°06'4 8.5
2018-Jun-14 07:59N 32°03' W 091°04'4 8.6
2018-Jun-14 07:30N 32°06' W 091°06'2 4.7
2018-Jun-14 07:00N 32°08' W 091°04'4 7.1
2018-Jun-14 06:30N 32°09' W 091°00'4 8.9
2018-Jun-14 06:00N 32°14' W 090°59'4 8.2
2018-Jun-14 05:30N 32°17' W 090°56'4 7.4
2018-Jun-14 05:00N 32°20' W 090°54'2 3.3
2018-Jun-14 04:30N 32°22' W 090°53'1 0.1
2018-Jun-13 21:44N 32°22' W 090°53'1 2.9
2018-Jun-13 21:30N 32°22' W 090°53'1 0.2
2018-Jun-13 16:23N 32°23' W 090°54'1 0.3
2018-Jun-13 11:58N 32°23' W 090°53'0 0.0
2018-Jun-13 11:30N 32°23' W 090°53'0 0.0
2018-Jun-13 11:00N 32°23' W 090°53'0 0.0
2018-Jun-13 10:30N 32°23' W 090°53'0 0.0
2018-Jun-13 10:00N 32°23' W 090°53'  
Track history (hours):
 
Tides and Currents Weather Stations Pressure Air Temp Water Temp Dewpoint Dewpoint Depression Visibility Wind Speed Wind Dir Waves Ship Positions

Melvin L King

Owner: YAZOO RIVER TOWING INC, VICKSBURG, MS. More information available from US FCC via Universal Licensing System and Coast Guard Vessel Documentation Center.

Last reported at 2018-Jun-23 09:36 UTC. Time now 2018-Jun-24 14:57 UTC.
Position N 31°59' W 091°06'.

Length 21 m; draft 2.5 m.

Type: Tow > 200 m length. MMSI: 367005760.

Date/timePositionNaut miles runAvg speedWind from/ knotsBaromVisibWave heightAir tempDewpointWater temp
2018-Jun-23 09:36N 31°59' W 091°06'1 9.8
2018-Jun-23 09:29N 32°00' W 091°05'6 8.5
2018-Jun-23 08:45N 32°06' W 091°06'2 7.4
2018-Jun-23 08:30N 32°08' W 091°05'4 8.8
2018-Jun-23 08:00N 32°09' W 091°00'510.3
2018-Jun-23 07:30N 32°14' W 090°59'510.3
2018-Jun-23 06:59N 32°18' W 090°55'3 5.9
2018-Jun-23 06:30N 32°20' W 090°54'0 0.2
2018-Jun-23 06:00N 32°21' W 090°54'0 0.0
2018-Jun-23 05:29N 32°21' W 090°54'0 0.0
2018-Jun-23 05:00N 32°21' W 090°54'0 0.0
2018-Jun-23 04:30N 32°21' W 090°54'0 0.0
2018-Jun-23 04:01N 32°21' W 090°54'0 0.0
2018-Jun-23 03:30N 32°21' W 090°54'0 0.0
2018-Jun-23 03:00N 32°21' W 090°54'0 0.0
2018-Jun-23 02:30N 32°21' W 090°54'0 0.0
2018-Jun-23 02:00N 32°21' W 090°54'0 0.6
2018-Jun-23 01:30N 32°20' W 090°54'0 0.5
2018-Jun-23 01:00N 32°20' W 090°54'2 4.6
2018-Jun-23 00:30N 32°18' W 090°55'2 3.8
2018-Jun-23 00:00N 32°17' W 090°57'2 3.7
2018-Jun-22 23:30N 32°15' W 090°58'2 3.9
2018-Jun-22 23:00N 32°14' W 090°59'2 3.4
2018-Jun-22 22:30N 32°12' W 090°59'2 3.6
2018-Jun-22 22:00N 32°10' W 090°60'2 3.7
2018-Jun-22 21:30N 32°08' W 091°00'2 3.5
2018-Jun-22 21:00N 32°07' W 091°02'3 3.9
2018-Jun-22 20:14N 32°08' W 091°05'1 4.0
2018-Jun-22 20:00N 32°07' W 091°06'3 2.9
2018-Jun-22 18:48N 32°04' W 091°04'1 4.0
2018-Jun-22 18:30N 32°03' W 091°04'2 4.9
2018-Jun-22 18:00N 32°01' W 091°05'  
2018-Jun-18 21:19N 29°51' W 091°54'2 6.9
2018-Jun-18 21:00N 29°50' W 091°57'2 4.3
2018-Jun-18 20:30N 29°50' W 091°59'0 0.0
2018-Jun-18 20:01N 29°50' W 091°59'0 0.0
2018-Jun-18 19:30N 29°50' W 091°59'0 0.0
2018-Jun-18 19:01N 29°50' W 091°59'0 0.0
2018-Jun-18 18:29N 29°50' W 091°59'0 0.0
2018-Jun-18 18:00N 29°50' W 091°59'0 0.0
2018-Jun-18 17:30N 29°50' W 091°59'0 0.0
2018-Jun-18 17:00N 29°50' W 091°59'0 0.0
2018-Jun-18 16:28N 29°50' W 091°59'0 0.0
2018-Jun-18 15:53N 29°50' W 091°59'0 0.0
2018-Jun-18 15:30N 29°50' W 091°59'0 0.0
2018-Jun-18 14:58N 29°50' W 091°59'0 0.0
2018-Jun-18 14:30N 29°50' W 091°59'0 0.0
2018-Jun-18 14:00N 29°50' W 091°59'0 0.0
2018-Jun-18 13:30N 29°50' W 091°59'0 0.0
2018-Jun-18 13:00N 29°50' W 091°59'0 0.0
2018-Jun-18 12:30N 29°50' W 091°59'0 0.5
2018-Jun-18 12:00N 29°50' W 091°59'0 0.0
2018-Jun-18 11:30N 29°50' W 091°59'0 0.0
2018-Jun-18 11:00N 29°50' W 091°59'0 0.0
2018-Jun-18 10:30N 29°50' W 091°59'0 0.0
2018-Jun-18 10:00N 29°50' W 091°59'1 1.9
2018-Jun-18 09:30N 29°50' W 092°00'2 3.0
2018-Jun-18 09:00N 29°49' W 092°02'3 6.3
2018-Jun-18 08:30N 29°48' W 092°05'3 5.4
2018-Jun-18 08:00N 29°47' W 092°08'3 5.3
2018-Jun-18 07:30N 29°47' W 092°11'1 2.5
2018-Jun-18 07:00N 29°47' W 092°12'0 0.8
2018-Jun-18 06:31N 29°47' W 092°13'1 2.5
2018-Jun-18 06:00N 29°48' W 092°14'0 0.1
2018-Jun-18 05:30N 29°48' W 092°14'1 1.1
2018-Jun-18 05:00N 29°48' W 092°15'0 0.0
2018-Jun-18 04:30N 29°48' W 092°15'0 0.0
2018-Jun-18 04:00N 29°48' W 092°15'0 0.0
2018-Jun-18 03:30N 29°48' W 092°15'0 0.0
2018-Jun-18 03:00N 29°48' W 092°15'0 0.0
2018-Jun-18 02:30N 29°48' W 092°15'0 0.5
2018-Jun-18 02:00N 29°48' W 092°15'0 0.9
2018-Jun-18 01:30N 29°48' W 092°16'0 0.0
2018-Jun-18 01:00N 29°48' W 092°16'0 0.0
2018-Jun-18 00:30N 29°48' W 092°16'0 0.0
2018-Jun-18 00:00N 29°48' W 092°16'0 0.0
2018-Jun-17 23:30N 29°48' W 092°16'1 1.6
2018-Jun-17 23:00N 29°49' W 092°16'3 5.6
2018-Jun-17 22:30N 29°50' W 092°19'0 0.2
2018-Jun-17 22:00N 29°50' W 092°19'0 0.1
2018-Jun-17 21:30N 29°50' W 092°19'2 3.2
2018-Jun-17 21:00N 29°50' W 092°18'2 3.4
2018-Jun-17 20:30N 29°49' W 092°16'2 3.8
2018-Jun-17 20:00N 29°48' W 092°14'2 3.2
2018-Jun-17 19:30N 29°47' W 092°12'1 1.3
2018-Jun-17 19:00N 29°47' W 092°12'0 0.2
2018-Jun-17 18:31N 29°47' W 092°12'0 0.0
2018-Jun-17 18:00N 29°47' W 092°12'0 0.3
2018-Jun-17 17:30N 29°47' W 092°11'1 1.2
2018-Jun-17 17:00N 29°47' W 092°11'1 2.4
2018-Jun-17 16:31N 29°47' W 092°09'2 4.6
2018-Jun-17 16:00N 29°48' W 092°07'2 4.3
2018-Jun-17 15:30N 29°48' W 092°05'2 5.0
2018-Jun-17 15:01N 29°49' W 092°02'6 5.5
2018-Jun-17 13:58N 29°51' W 091°56'54 3.8
2018-Jun-16 23:36N 29°34' W 090°56'1 5.3
2018-Jun-16 23:28N 29°34' W 090°55'3 4.9
2018-Jun-16 22:56N 29°32' W 090°53'2 5.2
2018-Jun-16 22:29N 29°32' W 090°50'3 5.4
2018-Jun-16 22:00N 29°32' W 090°47'2 4.2
2018-Jun-16 21:30N 29°33' W 090°45'2 4.2
2018-Jun-16 21:00N 29°35' W 090°43'2 3.7
2018-Jun-16 20:30N 29°36' W 090°43'2 3.0
2018-Jun-16 20:00N 29°36' W 090°41'2 4.2
2018-Jun-16 19:30N 29°35' W 090°39'2 3.9
2018-Jun-16 19:00N 29°35' W 090°37'2 3.8
2018-Jun-16 18:30N 29°34' W 090°34'2 4.2
2018-Jun-16 18:00N 29°34' W 090°32'2 4.5
2018-Jun-16 17:30N 29°34' W 090°29'  
2018-Jun-14 08:52N 31°59' W 091°10'4 8.5
2018-Jun-14 08:25N 31°59' W 091°06'4 8.5
2018-Jun-14 07:59N 32°03' W 091°04'4 8.6
2018-Jun-14 07:30N 32°06' W 091°06'2 4.7
2018-Jun-14 07:00N 32°08' W 091°04'4 7.1
2018-Jun-14 06:30N 32°09' W 091°00'4 8.9
2018-Jun-14 06:00N 32°14' W 090°59'4 8.2
2018-Jun-14 05:30N 32°17' W 090°56'4 7.4
2018-Jun-14 05:00N 32°20' W 090°54'2 3.3
2018-Jun-14 04:30N 32°22' W 090°53'1 0.1
2018-Jun-13 21:44N 32°22' W 090°53'1 2.9
2018-Jun-13 21:30N 32°22' W 090°53'1 0.2
2018-Jun-13 16:23N 32°23' W 090°54'1 0.3
2018-Jun-13 11:58N 32°23' W 090°53'0 0.0
2018-Jun-13 11:30N 32°23' W 090°53'0 0.0
2018-Jun-13 11:00N 32°23' W 090°53'0 0.0
2018-Jun-13 10:30N 32°23' W 090°53'0 0.0
2018-Jun-13 10:00N 32°23' W 090°53'  

Dump ship's entire track history